sensor_id;sensor_type;location;lat;lon;timestamp;P1;durP1;ratioP1;P2;durP2;ratioP2
51214;SDS011;63849;47.546;19.254;2023-03-13T00:01:25;13.38;;;8.15;;
51214;SDS011;63849;47.546;19.254;2023-03-13T00:03:56;13.77;;;8.82;;
51214;SDS011;63849;47.546;19.254;2023-03-13T00:06:22;12.55;;;7.50;;
51214;SDS011;63849;47.546;19.254;2023-03-13T00:08:50;13.07;;;9.02;;
51214;SDS011;63849;47.546;19.254;2023-03-13T00:11:15;10.32;;;7.88;;
51214;SDS011;63849;47.546;19.254;2023-03-13T00:13:42;13.82;;;8.00;;
51214;SDS011;63849;47.546;19.254;2023-03-13T00:16:15;17.88;;;9.27;;
51214;SDS011;63849;47.546;19.254;2023-03-13T00:18:47;15.18;;;9.05;;
51214;SDS011;63849;47.546;19.254;2023-03-13T00:21:15;14.00;;;9.18;;
51214;SDS011;63849;47.546;19.254;2023-03-13T00:23:42;14.23;;;9.73;;
51214;SDS011;63849;47.546;19.254;2023-03-13T00:26:09;11.93;;;9.02;;
51214;SDS011;63849;47.546;19.254;2023-03-13T00:28:37;16.48;;;9.50;;
51214;SDS011;63849;47.546;19.254;2023-03-13T00:31:05;16.00;;;9.10;;
51214;SDS011;63849;47.546;19.254;2023-03-13T00:33:56;14.98;;;9.07;;
51214;SDS011;63849;47.546;19.254;2023-03-13T00:36:25;15.98;;;8.48;;
51214;SDS011;63849;47.546;19.254;2023-03-13T00:38:53;13.40;;;8.90;;
51214;SDS011;63849;47.546;19.254;2023-03-13T00:41:20;12.77;;;8.13;;
51214;SDS011;63849;47.546;19.254;2023-03-13T00:43:47;13.60;;;8.18;;
51214;SDS011;63849;47.546;19.254;2023-03-13T00:46:15;11.73;;;7.95;;
51214;SDS011;63849;47.546;19.254;2023-03-13T00:48:42;14.05;;;8.35;;
51214;SDS011;63849;47.546;19.254;2023-03-13T00:51:08;14.38;;;7.88;;
51214;SDS011;63849;47.546;19.254;2023-03-13T00:53:34;10.32;;;7.75;;
51214;SDS011;63849;47.546;19.254;2023-03-13T00:56:06;14.02;;;7.50;;
51214;SDS011;63849;47.546;19.254;2023-03-13T00:58:34;11.43;;;8.45;;
51214;SDS011;63849;47.546;19.254;2023-03-13T01:04:04;11.82;;;7.88;;
51214;SDS011;63849;47.546;19.254;2023-03-13T01:06:32;12.38;;;8.30;;
51214;SDS011;63849;47.546;19.254;2023-03-13T01:09:02;13.13;;;8.38;;
51214;SDS011;63849;47.546;19.254;2023-03-13T01:11:33;11.35;;;8.02;;
51214;SDS011;63849;47.546;19.254;2023-03-13T01:14:02;13.00;;;7.82;;
51214;SDS011;63849;47.546;19.254;2023-03-13T01:16:31;13.45;;;7.82;;
51214;SDS011;63849;47.546;19.254;2023-03-13T01:18:59;12.70;;;8.13;;
51214;SDS011;63849;47.546;19.254;2023-03-13T01:21:26;13.65;;;8.68;;
51214;SDS011;63849;47.546;19.254;2023-03-13T01:23:52;12.00;;;7.32;;
51214;SDS011;63849;47.546;19.254;2023-03-13T01:26:19;11.35;;;7.00;;
51214;SDS011;63849;47.546;19.254;2023-03-13T01:28:45;11.95;;;8.00;;
51214;SDS011;63849;47.546;19.254;2023-03-13T01:31:18;13.45;;;8.07;;
51214;SDS011;63849;47.546;19.254;2023-03-13T01:33:49;12.80;;;8.75;;
51214;SDS011;63849;47.546;19.254;2023-03-13T01:36:18;13.13;;;9.20;;
51214;SDS011;63849;47.546;19.254;2023-03-13T01:38:46;12.52;;;8.07;;
51214;SDS011;63849;47.546;19.254;2023-03-13T01:41:13;12.02;;;8.52;;
51214;SDS011;63849;47.546;19.254;2023-03-13T01:43:39;11.98;;;8.20;;
51214;SDS011;63849;47.546;19.254;2023-03-13T01:46:12;12.13;;;8.38;;
51214;SDS011;63849;47.546;19.254;2023-03-13T01:48:51;12.75;;;8.35;;
51214;SDS011;63849;47.546;19.254;2023-03-13T01:51:33;12.45;;;8.35;;
51214;SDS011;63849;47.546;19.254;2023-03-13T01:54:07;12.07;;;7.90;;
51214;SDS011;63849;47.546;19.254;2023-03-13T01:59:34;12.20;;;8.23;;
51214;SDS011;63849;47.546;19.254;2023-03-13T02:02:22;12.27;;;8.45;;
51214;SDS011;63849;47.546;19.254;2023-03-13T02:04:49;13.60;;;9.38;;
51214;SDS011;63849;47.546;19.254;2023-03-13T02:07:22;11.25;;;7.85;;
51214;SDS011;63849;47.546;19.254;2023-03-13T02:09:52;12.00;;;8.18;;
51214;SDS011;63849;47.546;19.254;2023-03-13T02:12:21;14.20;;;8.95;;
51214;SDS011;63849;47.546;19.254;2023-03-13T02:14:57;13.80;;;8.38;;
51214;SDS011;63849;47.546;19.254;2023-03-13T02:17:24;12.63;;;8.32;;
51214;SDS011;63849;47.546;19.254;2023-03-13T02:19:52;14.27;;;8.57;;
51214;SDS011;63849;47.546;19.254;2023-03-13T02:22:37;10.10;;;7.65;;
51214;SDS011;63849;47.546;19.254;2023-03-13T02:30:46;10.50;;;7.50;;
51214;SDS011;63849;47.546;19.254;2023-03-13T02:33:14;12.88;;;8.02;;
51214;SDS011;63849;47.546;19.254;2023-03-13T02:35:43;12.68;;;8.43;;
51214;SDS011;63849;47.546;19.254;2023-03-13T02:38:10;12.77;;;8.50;;
51214;SDS011;63849;47.546;19.254;2023-03-13T02:40:39;11.27;;;8.10;;
51214;SDS011;63849;47.546;19.254;2023-03-13T02:43:10;12.32;;;8.43;;
51214;SDS011;63849;47.546;19.254;2023-03-13T02:45:39;14.48;;;8.75;;
51214;SDS011;63849;47.546;19.254;2023-03-13T02:48:05;13.13;;;8.50;;
51214;SDS011;63849;47.546;19.254;2023-03-13T02:50:31;12.50;;;8.63;;
51214;SDS011;63849;47.546;19.254;2023-03-13T02:53:00;14.63;;;9.55;;
51214;SDS011;63849;47.546;19.254;2023-03-13T02:55:34;13.90;;;8.25;;
51214;SDS011;63849;47.546;19.254;2023-03-13T02:58:05;13.25;;;8.90;;
51214;SDS011;63849;47.546;19.254;2023-03-13T03:00:31;14.77;;;9.88;;
51214;SDS011;63849;47.546;19.254;2023-03-13T03:02:57;15.00;;;9.10;;
51214;SDS011;63849;47.546;19.254;2023-03-13T03:05:23;15.70;;;9.88;;
51214;SDS011;63849;47.546;19.254;2023-03-13T03:07:49;11.98;;;9.35;;
51214;SDS011;63849;47.546;19.254;2023-03-13T03:10:15;15.40;;;9.18;;
51214;SDS011;63849;47.546;19.254;2023-03-13T03:12:41;13.75;;;8.27;;
51214;SDS011;63849;47.546;19.254;2023-03-13T03:15:07;13.02;;;8.93;;
51214;SDS011;63849;47.546;19.254;2023-03-13T03:17:34;17.35;;;9.25;;
51214;SDS011;63849;47.546;19.254;2023-03-13T03:19:59;14.02;;;10.15;;
51214;SDS011;63849;47.546;19.254;2023-03-13T03:22:25;19.27;;;9.50;;
51214;SDS011;63849;47.546;19.254;2023-03-13T03:24:51;12.65;;;8.75;;
51214;SDS011;63849;47.546;19.254;2023-03-13T03:27:17;12.05;;;8.85;;
51214;SDS011;63849;47.546;19.254;2023-03-13T03:29:43;13.82;;;8.82;;
51214;SDS011;63849;47.546;19.254;2023-03-13T03:32:08;11.55;;;8.82;;
51214;SDS011;63849;47.546;19.254;2023-03-13T03:34:34;12.32;;;9.00;;
51214;SDS011;63849;47.546;19.254;2023-03-13T03:37:00;12.52;;;8.57;;
51214;SDS011;63849;47.546;19.254;2023-03-13T03:39:26;14.68;;;8.95;;
51214;SDS011;63849;47.546;19.254;2023-03-13T03:41:52;17.83;;;9.27;;
51214;SDS011;63849;47.546;19.254;2023-03-13T03:44:17;15.38;;;8.98;;
51214;SDS011;63849;47.546;19.254;2023-03-13T03:46:43;11.20;;;8.75;;
51214;SDS011;63849;47.546;19.254;2023-03-13T03:49:09;15.88;;;8.82;;
51214;SDS011;63849;47.546;19.254;2023-03-13T03:51:35;12.02;;;8.50;;
51214;SDS011;63849;47.546;19.254;2023-03-13T03:54:00;14.50;;;9.50;;
51214;SDS011;63849;47.546;19.254;2023-03-13T03:56:26;12.88;;;9.02;;
51214;SDS011;63849;47.546;19.254;2023-03-13T03:58:52;12.43;;;9.50;;
51214;SDS011;63849;47.546;19.254;2023-03-13T04:01:18;13.80;;;9.30;;
51214;SDS011;63849;47.546;19.254;2023-03-13T04:03:43;12.43;;;9.52;;
51214;SDS011;63849;47.546;19.254;2023-03-13T04:06:09;12.15;;;9.52;;
51214;SDS011;63849;47.546;19.254;2023-03-13T04:08:35;16.42;;;9.50;;
51214;SDS011;63849;47.546;19.254;2023-03-13T04:11:01;11.15;;;8.32;;
51214;SDS011;63849;47.546;19.254;2023-03-13T04:13:27;12.07;;;8.77;;
51214;SDS011;63849;47.546;19.254;2023-03-13T04:15:53;12.52;;;8.93;;
51214;SDS011;63849;47.546;19.254;2023-03-13T04:18:19;12.75;;;9.40;;
51214;SDS011;63849;47.546;19.254;2023-03-13T04:20:45;12.18;;;8.75;;
51214;SDS011;63849;47.546;19.254;2023-03-13T04:23:10;14.85;;;8.85;;
51214;SDS011;63849;47.546;19.254;2023-03-13T04:25:36;13.93;;;9.32;;
51214;SDS011;63849;47.546;19.254;2023-03-13T04:28:02;14.00;;;9.68;;
51214;SDS011;63849;47.546;19.254;2023-03-13T04:30:28;13.10;;;9.23;;
51214;SDS011;63849;47.546;19.254;2023-03-13T04:32:54;16.13;;;9.57;;
51214;SDS011;63849;47.546;19.254;2023-03-13T04:35:20;12.38;;;10.05;;
51214;SDS011;63849;47.546;19.254;2023-03-13T04:37:46;14.57;;;9.45;;
51214;SDS011;63849;47.546;19.254;2023-03-13T04:40:11;14.98;;;9.55;;
51214;SDS011;63849;47.546;19.254;2023-03-13T04:42:39;15.73;;;9.52;;
51214;SDS011;63849;47.546;19.254;2023-03-13T04:45:07;14.25;;;9.32;;
51214;SDS011;63849;47.546;19.254;2023-03-13T04:47:37;16.77;;;9.70;;
51214;SDS011;63849;47.546;19.254;2023-03-13T04:50:03;15.30;;;9.63;;
51214;SDS011;63849;47.546;19.254;2023-03-13T04:52:29;15.23;;;9.50;;
51214;SDS011;63849;47.546;19.254;2023-03-13T04:54:55;16.67;;;10.07;;
51214;SDS011;63849;47.546;19.254;2023-03-13T04:57:21;15.48;;;10.10;;
51214;SDS011;63849;47.546;19.254;2023-03-13T04:59:47;12.55;;;9.35;;
51214;SDS011;63849;47.546;19.254;2023-03-13T05:02:12;11.60;;;9.30;;
51214;SDS011;63849;47.546;19.254;2023-03-13T05:04:38;15.02;;;9.23;;
51214;SDS011;63849;47.546;19.254;2023-03-13T05:07:04;14.82;;;9.07;;
51214;SDS011;63849;47.546;19.254;2023-03-13T05:09:30;13.35;;;7.97;;
51214;SDS011;63849;47.546;19.254;2023-03-13T05:11:56;13.93;;;10.10;;
51214;SDS011;63849;47.546;19.254;2023-03-13T05:14:21;12.57;;;9.50;;
51214;SDS011;63849;47.546;19.254;2023-03-13T05:16:50;15.45;;;10.35;;
51214;SDS011;63849;47.546;19.254;2023-03-13T05:19:16;14.95;;;10.52;;
51214;SDS011;63849;47.546;19.254;2023-03-13T05:21:42;16.00;;;10.38;;
51214;SDS011;63849;47.546;19.254;2023-03-13T05:24:08;13.93;;;10.27;;
51214;SDS011;63849;47.546;19.254;2023-03-13T05:26:33;12.75;;;10.18;;
51214;SDS011;63849;47.546;19.254;2023-03-13T05:28:59;13.75;;;10.23;;
51214;SDS011;63849;47.546;19.254;2023-03-13T05:31:25;13.40;;;10.20;;
51214;SDS011;63849;47.546;19.254;2023-03-13T05:33:51;13.93;;;9.80;;
51214;SDS011;63849;47.546;19.254;2023-03-13T05:36:17;15.07;;;10.50;;
51214;SDS011;63849;47.546;19.254;2023-03-13T05:38:43;17.50;;;10.82;;
51214;SDS011;63849;47.546;19.254;2023-03-13T05:41:08;18.85;;;11.73;;
51214;SDS011;63849;47.546;19.254;2023-03-13T05:43:34;18.67;;;10.10;;
51214;SDS011;63849;47.546;19.254;2023-03-13T05:46:03;14.05;;;11.00;;
51214;SDS011;63849;47.546;19.254;2023-03-13T05:48:29;15.15;;;10.73;;
51214;SDS011;63849;47.546;19.254;2023-03-13T05:50:54;12.52;;;10.35;;
51214;SDS011;63849;47.546;19.254;2023-03-13T05:53:20;16.08;;;11.38;;
51214;SDS011;63849;47.546;19.254;2023-03-13T05:55:46;15.77;;;10.63;;
51214;SDS011;63849;47.546;19.254;2023-03-13T05:58:12;16.23;;;11.45;;
51214;SDS011;63849;47.546;19.254;2023-03-13T06:00:38;15.43;;;11.05;;
51214;SDS011;63849;47.546;19.254;2023-03-13T06:03:04;15.90;;;10.85;;
51214;SDS011;63849;47.546;19.254;2023-03-13T06:05:33;14.68;;;11.13;;
51214;SDS011;63849;47.546;19.254;2023-03-13T06:07:59;14.38;;;10.18;;
51214;SDS011;63849;47.546;19.254;2023-03-13T06:10:27;15.02;;;10.52;;
51214;SDS011;63849;47.546;19.254;2023-03-13T06:12:54;14.57;;;10.32;;
51214;SDS011;63849;47.546;19.254;2023-03-13T06:15:20;13.85;;;9.68;;
51214;SDS011;63849;47.546;19.254;2023-03-13T06:17:46;13.30;;;10.45;;
51214;SDS011;63849;47.546;19.254;2023-03-13T06:20:13;14.57;;;10.70;;
51214;SDS011;63849;47.546;19.254;2023-03-13T06:22:40;13.82;;;9.95;;
51214;SDS011;63849;47.546;19.254;2023-03-13T06:25:06;14.95;;;10.70;;
51214;SDS011;63849;47.546;19.254;2023-03-13T06:27:32;22.42;;;13.23;;
51214;SDS011;63849;47.546;19.254;2023-03-13T06:29:58;18.88;;;12.05;;
51214;SDS011;63849;47.546;19.254;2023-03-13T06:32:26;20.88;;;11.93;;
51214;SDS011;63849;47.546;19.254;2023-03-13T06:34:52;15.10;;;10.65;;
51214;SDS011;63849;47.546;19.254;2023-03-13T06:37:18;15.82;;;9.93;;
51214;SDS011;63849;47.546;19.254;2023-03-13T06:39:45;14.73;;;9.55;;
51214;SDS011;63849;47.546;19.254;2023-03-13T06:42:11;15.25;;;9.52;;
51214;SDS011;63849;47.546;19.254;2023-03-13T06:44:37;15.05;;;9.75;;
51214;SDS011;63849;47.546;19.254;2023-03-13T06:47:03;16.13;;;10.20;;
51214;SDS011;63849;47.546;19.254;2023-03-13T06:49:32;15.82;;;10.85;;
51214;SDS011;63849;47.546;19.254;2023-03-13T06:51:58;12.68;;;9.82;;
51214;SDS011;63849;47.546;19.254;2023-03-13T06:54:24;11.85;;;9.95;;
51214;SDS011;63849;47.546;19.254;2023-03-13T06:56:52;13.13;;;10.10;;
51214;SDS011;63849;47.546;19.254;2023-03-13T06:59:18;13.77;;;9.70;;
51214;SDS011;63849;47.546;19.254;2023-03-13T07:01:43;16.58;;;9.98;;
51214;SDS011;63849;47.546;19.254;2023-03-13T07:04:11;12.38;;;9.20;;
51214;SDS011;63849;47.546;19.254;2023-03-13T07:06:40;11.40;;;8.40;;
51214;SDS011;63849;47.546;19.254;2023-03-13T07:09:09;10.68;;;7.88;;
51214;SDS011;63849;47.546;19.254;2023-03-13T07:11:35;12.77;;;8.65;;
51214;SDS011;63849;47.546;19.254;2023-03-13T07:14:01;11.63;;;8.35;;
51214;SDS011;63849;47.546;19.254;2023-03-13T07:16:29;13.30;;;9.43;;
51214;SDS011;63849;47.546;19.254;2023-03-13T07:18:55;13.00;;;9.48;;
51214;SDS011;63849;47.546;19.254;2023-03-13T07:21:22;12.43;;;9.02;;
51214;SDS011;63849;47.546;19.254;2023-03-13T07:23:49;15.68;;;9.45;;
51214;SDS011;63849;47.546;19.254;2023-03-13T07:26:15;12.50;;;9.52;;
51214;SDS011;63849;47.546;19.254;2023-03-13T07:28:44;13.85;;;8.90;;
51214;SDS011;63849;47.546;19.254;2023-03-13T07:31:12;12.40;;;9.30;;
51214;SDS011;63849;47.546;19.254;2023-03-13T07:33:39;13.07;;;9.63;;
51214;SDS011;63849;47.546;19.254;2023-03-13T07:36:09;12.80;;;9.85;;
51214;SDS011;63849;47.546;19.254;2023-03-13T07:38:38;14.80;;;9.82;;
51214;SDS011;63849;47.546;19.254;2023-03-13T07:41:06;14.63;;;10.30;;
51214;SDS011;63849;47.546;19.254;2023-03-13T07:43:35;14.27;;;10.38;;
51214;SDS011;63849;47.546;19.254;2023-03-13T07:46:02;15.27;;;10.68;;
51214;SDS011;63849;47.546;19.254;2023-03-13T07:48:30;17.27;;;11.13;;
51214;SDS011;63849;47.546;19.254;2023-03-13T07:51:05;20.23;;;10.90;;
51214;SDS011;63849;47.546;19.254;2023-03-13T07:53:32;14.30;;;9.90;;
51214;SDS011;63849;47.546;19.254;2023-03-13T07:56:00;13.13;;;9.93;;
51214;SDS011;63849;47.546;19.254;2023-03-13T07:58:31;10.73;;;8.95;;
51214;SDS011;63849;47.546;19.254;2023-03-13T08:00:59;13.35;;;9.82;;
51214;SDS011;63849;47.546;19.254;2023-03-13T08:03:25;13.82;;;9.55;;
51214;SDS011;63849;47.546;19.254;2023-03-13T08:06:01;14.27;;;9.68;;
51214;SDS011;63849;47.546;19.254;2023-03-13T08:08:29;12.02;;;9.77;;
51214;SDS011;63849;47.546;19.254;2023-03-13T08:11:02;13.95;;;9.52;;
51214;SDS011;63849;47.546;19.254;2023-03-13T08:13:30;13.45;;;9.48;;
51214;SDS011;63849;47.546;19.254;2023-03-13T08:16:00;15.30;;;9.50;;
51214;SDS011;63849;47.546;19.254;2023-03-13T08:18:46;12.18;;;8.93;;
51214;SDS011;63849;47.546;19.254;2023-03-13T08:21:14;12.10;;;8.70;;
51214;SDS011;63849;47.546;19.254;2023-03-13T08:23:45;12.05;;;8.63;;
51214;SDS011;63849;47.546;19.254;2023-03-13T08:26:12;11.05;;;6.93;;
51214;SDS011;63849;47.546;19.254;2023-03-13T08:28:43;10.98;;;7.18;;
51214;SDS011;63849;47.546;19.254;2023-03-13T08:31:19;10.23;;;6.32;;
51214;SDS011;63849;47.546;19.254;2023-03-13T08:33:49;11.40;;;7.13;;
51214;SDS011;63849;47.546;19.254;2023-03-13T08:36:16;10.00;;;5.93;;
51214;SDS011;63849;47.546;19.254;2023-03-13T08:38:48;7.50;;;6.28;;
51214;SDS011;63849;47.546;19.254;2023-03-13T08:41:19;8.68;;;6.35;;
51214;SDS011;63849;47.546;19.254;2023-03-13T08:43:51;6.28;;;5.68;;
51214;SDS011;63849;47.546;19.254;2023-03-13T08:46:17;10.63;;;7.05;;
51214;SDS011;63849;47.546;19.254;2023-03-13T08:48:43;9.20;;;6.18;;
51214;SDS011;63849;47.546;19.254;2023-03-13T08:51:10;10.27;;;5.70;;
51214;SDS011;63849;47.546;19.254;2023-03-13T08:53:38;5.72;;;5.15;;
51214;SDS011;63849;47.546;19.254;2023-03-13T08:56:06;10.07;;;6.13;;
51214;SDS011;63849;47.546;19.254;2023-03-13T08:58:33;6.70;;;5.70;;
51214;SDS011;63849;47.546;19.254;2023-03-13T09:01:03;6.45;;;5.78;;
51214;SDS011;63849;47.546;19.254;2023-03-13T09:03:31;15.30;;;5.50;;
51214;SDS011;63849;47.546;19.254;2023-03-13T09:06:00;9.40;;;5.45;;
51214;SDS011;63849;47.546;19.254;2023-03-13T09:08:27;8.13;;;5.40;;
51214;SDS011;63849;47.546;19.254;2023-03-13T09:10:57;6.85;;;5.22;;
51214;SDS011;63849;47.546;19.254;2023-03-13T09:13:24;7.85;;;4.32;;
51214;SDS011;63849;47.546;19.254;2023-03-13T09:15:58;5.95;;;5.25;;
51214;SDS011;63849;47.546;19.254;2023-03-13T09:18:26;11.35;;;5.88;;
51214;SDS011;63849;47.546;19.254;2023-03-13T09:20:53;7.05;;;5.30;;
51214;SDS011;63849;47.546;19.254;2023-03-13T09:23:19;7.32;;;5.30;;
51214;SDS011;63849;47.546;19.254;2023-03-13T09:25:46;8.77;;;5.13;;
51214;SDS011;63849;47.546;19.254;2023-03-13T09:28:13;8.00;;;5.18;;
51214;SDS011;63849;47.546;19.254;2023-03-13T09:30:38;9.85;;;5.45;;
51214;SDS011;63849;47.546;19.254;2023-03-13T09:33:04;10.02;;;5.50;;
51214;SDS011;63849;47.546;19.254;2023-03-13T09:35:30;7.50;;;5.63;;
51214;SDS011;63849;47.546;19.254;2023-03-13T09:37:56;10.32;;;5.65;;
51214;SDS011;63849;47.546;19.254;2023-03-13T09:40:23;9.00;;;5.80;;
51214;SDS011;63849;47.546;19.254;2023-03-13T09:42:52;8.45;;;5.50;;
51214;SDS011;63849;47.546;19.254;2023-03-13T09:47:53;9.82;;;5.88;;
51214;SDS011;63849;47.546;19.254;2023-03-13T09:50:28;11.50;;;6.22;;
51214;SDS011;63849;47.546;19.254;2023-03-13T09:53:03;6.78;;;5.32;;
51214;SDS011;63849;47.546;19.254;2023-03-13T09:55:40;7.30;;;5.15;;
51214;SDS011;63849;47.546;19.254;2023-03-13T10:00:59;6.45;;;4.97;;
51214;SDS011;63849;47.546;19.254;2023-03-13T10:03:33;8.88;;;4.68;;
51214;SDS011;63849;47.546;19.254;2023-03-13T10:06:05;6.97;;;5.13;;
51214;SDS011;63849;47.546;19.254;2023-03-13T10:08:40;6.63;;;5.18;;
51214;SDS011;63849;47.546;19.254;2023-03-13T10:16:27;6.65;;;4.72;;
51214;SDS011;63849;47.546;19.254;2023-03-13T10:18:58;6.32;;;4.22;;
51214;SDS011;63849;47.546;19.254;2023-03-13T10:21:39;7.13;;;4.97;;
51214;SDS011;63849;47.546;19.254;2023-03-13T10:26:43;5.70;;;4.40;;
51214;SDS011;63849;47.546;19.254;2023-03-13T10:31:40;6.53;;;4.97;;
51214;SDS011;63849;47.546;19.254;2023-03-13T10:34:13;9.67;;;5.20;;
51214;SDS011;63849;47.546;19.254;2023-03-13T10:36:41;10.57;;;5.15;;
51214;SDS011;63849;47.546;19.254;2023-03-13T10:39:20;11.45;;;4.93;;
51214;SDS011;63849;47.546;19.254;2023-03-13T10:41:47;6.88;;;5.00;;
51214;SDS011;63849;47.546;19.254;2023-03-13T10:44:15;6.35;;;4.57;;
51214;SDS011;63849;47.546;19.254;2023-03-13T10:46:53;8.85;;;5.07;;
51214;SDS011;63849;47.546;19.254;2023-03-13T10:49:24;7.40;;;5.28;;
51214;SDS011;63849;47.546;19.254;2023-03-13T10:51:51;9.77;;;4.97;;
51214;SDS011;63849;47.546;19.254;2023-03-13T10:54:21;12.02;;;4.85;;
51214;SDS011;63849;47.546;19.254;2023-03-13T10:56:50;7.20;;;5.18;;
51214;SDS011;63849;47.546;19.254;2023-03-13T10:59:23;11.02;;;4.95;;
51214;SDS011;63849;47.546;19.254;2023-03-13T11:01:51;8.88;;;5.55;;
51214;SDS011;63849;47.546;19.254;2023-03-13T11:04:29;7.40;;;5.25;;
51214;SDS011;63849;47.546;19.254;2023-03-13T11:07:01;6.53;;;5.07;;
51214;SDS011;63849;47.546;19.254;2023-03-13T11:09:29;8.60;;;5.10;;
51214;SDS011;63849;47.546;19.254;2023-03-13T11:12:00;6.47;;;5.00;;
51214;SDS011;63849;47.546;19.254;2023-03-13T11:14:34;7.78;;;4.88;;
51214;SDS011;63849;47.546;19.254;2023-03-13T11:19:31;16.55;;;5.15;;
51214;SDS011;63849;47.546;19.254;2023-03-13T11:22:14;9.70;;;5.28;;
51214;SDS011;63849;47.546;19.254;2023-03-13T11:36:19;8.20;;;4.70;;
51214;SDS011;63849;47.546;19.254;2023-03-13T11:38:52;9.25;;;4.95;;
51214;SDS011;63849;47.546;19.254;2023-03-13T11:44:30;11.10;;;4.90;;
51214;SDS011;63849;47.546;19.254;2023-03-13T11:49:52;8.30;;;5.03;;
51214;SDS011;63849;47.546;19.254;2023-03-13T11:52:28;6.80;;;4.45;;
51214;SDS011;63849;47.546;19.254;2023-03-13T12:00:32;8.65;;;4.88;;
51214;SDS011;63849;47.546;19.254;2023-03-13T12:05:46;10.68;;;5.35;;
51214;SDS011;63849;47.546;19.254;2023-03-13T12:11:16;10.95;;;5.10;;
51214;SDS011;63849;47.546;19.254;2023-03-13T12:14:03;8.70;;;5.25;;
51214;SDS011;63849;47.546;19.254;2023-03-13T12:19:07;9.77;;;5.60;;
51214;SDS011;63849;47.546;19.254;2023-03-13T12:21:49;7.25;;;4.45;;
51214;SDS011;63849;47.546;19.254;2023-03-13T12:26:59;7.43;;;5.10;;
51214;SDS011;63849;47.546;19.254;2023-03-13T12:29:57;9.18;;;4.30;;
51214;SDS011;63849;47.546;19.254;2023-03-13T12:32:53;14.93;;;4.70;;
51214;SDS011;63849;47.546;19.254;2023-03-13T12:35:37;6.93;;;4.65;;
51214;SDS011;63849;47.546;19.254;2023-03-13T12:38:23;8.05;;;4.70;;
51214;SDS011;63849;47.546;19.254;2023-03-13T12:43:33;12.90;;;4.47;;
51214;SDS011;63849;47.546;19.254;2023-03-13T12:57:23;10.35;;;4.70;;
51214;SDS011;63849;47.546;19.254;2023-03-13T13:00:22;7.68;;;4.60;;
51214;SDS011;63849;47.546;19.254;2023-03-13T13:03:52;7.50;;;4.43;;
51214;SDS011;63849;47.546;19.254;2023-03-13T13:08:41;8.18;;;4.72;;
51214;SDS011;63849;47.546;19.254;2023-03-13T13:14:05;8.63;;;4.50;;
51214;SDS011;63849;47.546;19.254;2023-03-13T13:19:58;12.70;;;4.70;;
51214;SDS011;63849;47.546;19.254;2023-03-13T13:22:55;8.05;;;4.05;;
51214;SDS011;63849;47.546;19.254;2023-03-13T13:25:29;11.40;;;4.65;;
51214;SDS011;63849;47.546;19.254;2023-03-13T13:30:59;6.53;;;3.60;;
51214;SDS011;63849;47.546;19.254;2023-03-13T13:38:36;7.32;;;3.75;;
51214;SDS011;63849;47.546;19.254;2023-03-13T13:43:39;14.05;;;3.60;;
51214;SDS011;63849;47.546;19.254;2023-03-13T13:48:37;7.50;;;3.50;;
51214;SDS011;63849;47.546;19.254;2023-03-13T13:53:49;8.18;;;3.05;;
51214;SDS011;63849;47.546;19.254;2023-03-13T13:58:59;8.32;;;3.22;;
51214;SDS011;63849;47.546;19.254;2023-03-13T14:04:33;8.57;;;2.97;;
51214;SDS011;63849;47.546;19.254;2023-03-13T14:07:00;4.97;;;2.78;;
51214;SDS011;63849;47.546;19.254;2023-03-13T14:17:40;10.80;;;3.08;;
51214;SDS011;63849;47.546;19.254;2023-03-13T14:20:23;10.98;;;3.30;;
51214;SDS011;63849;47.546;19.254;2023-03-13T14:22:51;9.43;;;2.90;;
51214;SDS011;63849;47.546;19.254;2023-03-13T14:25:20;5.65;;;3.05;;
51214;SDS011;63849;47.546;19.254;2023-03-13T14:27:50;7.50;;;3.40;;
51214;SDS011;63849;47.546;19.254;2023-03-13T14:30:18;5.63;;;3.13;;
51214;SDS011;63849;47.546;19.254;2023-03-13T14:32:44;6.05;;;2.40;;
51214;SDS011;63849;47.546;19.254;2023-03-13T14:35:12;7.30;;;2.55;;
51214;SDS011;63849;47.546;19.254;2023-03-13T14:37:41;7.10;;;2.40;;
51214;SDS011;63849;47.546;19.254;2023-03-13T14:42:51;5.82;;;2.78;;
51214;SDS011;63849;47.546;19.254;2023-03-13T14:45:23;4.10;;;2.40;;
51214;SDS011;63849;47.546;19.254;2023-03-13T14:47:50;5.22;;;2.58;;
51214;SDS011;63849;47.546;19.254;2023-03-13T14:50:17;2.60;;;2.17;;
51214;SDS011;63849;47.546;19.254;2023-03-13T14:52:50;9.13;;;2.78;;
51214;SDS011;63849;47.546;19.254;2023-03-13T14:58:33;6.93;;;2.70;;
51214;SDS011;63849;47.546;19.254;2023-03-13T15:00:43;7.80;;;3.58;;
51214;SDS011;63849;47.546;19.254;2023-03-13T15:05:50;4.40;;;3.08;;
51214;SDS011;63849;47.546;19.254;2023-03-13T15:08:39;6.10;;;2.85;;
51214;SDS011;63849;47.546;19.254;2023-03-13T15:13:58;8.38;;;3.50;;
51214;SDS011;63849;47.546;19.254;2023-03-13T15:16:24;9.02;;;3.53;;
51214;SDS011;63849;47.546;19.254;2023-03-13T15:18:51;9.65;;;3.92;;
51214;SDS011;63849;47.546;19.254;2023-03-13T15:21:27;11.73;;;3.58;;
51214;SDS011;63849;47.546;19.254;2023-03-13T15:23:57;5.47;;;2.67;;
51214;SDS011;63849;47.546;19.254;2023-03-13T15:26:26;6.38;;;2.97;;
51214;SDS011;63849;47.546;19.254;2023-03-13T15:28:52;7.10;;;2.97;;
51214;SDS011;63849;47.546;19.254;2023-03-13T15:31:19;7.70;;;2.88;;
51214;SDS011;63849;47.546;19.254;2023-03-13T15:33:47;7.25;;;3.20;;
51214;SDS011;63849;47.546;19.254;2023-03-13T15:36:18;5.80;;;2.53;;
51214;SDS011;63849;47.546;19.254;2023-03-13T15:38:53;5.43;;;2.13;;
51214;SDS011;63849;47.546;19.254;2023-03-13T15:41:28;5.25;;;2.08;;
51214;SDS011;63849;47.546;19.254;2023-03-13T15:43:57;12.45;;;5.80;;
51214;SDS011;63849;47.546;19.254;2023-03-13T15:46:23;5.72;;;2.70;;
51214;SDS011;63849;47.546;19.254;2023-03-13T15:48:52;7.13;;;1.98;;
51214;SDS011;63849;47.546;19.254;2023-03-13T15:51:18;7.85;;;3.15;;
51214;SDS011;63849;47.546;19.254;2023-03-13T15:53:45;5.03;;;2.15;;
51214;SDS011;63849;47.546;19.254;2023-03-13T15:56:19;5.38;;;2.95;;
51214;SDS011;63849;47.546;19.254;2023-03-13T15:58:47;6.22;;;2.25;;
51214;SDS011;63849;47.546;19.254;2023-03-13T16:01:14;5.03;;;2.40;;
51214;SDS011;63849;47.546;19.254;2023-03-13T16:03:41;9.63;;;3.22;;
51214;SDS011;63849;47.546;19.254;2023-03-13T16:08:44;4.18;;;1.60;;
51214;SDS011;63849;47.546;19.254;2023-03-13T16:11:11;3.83;;;1.92;;
51214;SDS011;63849;47.546;19.254;2023-03-13T16:13:40;4.30;;;2.00;;
51214;SDS011;63849;47.546;19.254;2023-03-13T16:16:18;8.20;;;2.15;;
51214;SDS011;63849;47.546;19.254;2023-03-13T16:18:54;2.22;;;1.80;;
51214;SDS011;63849;47.546;19.254;2023-03-13T16:21:23;2.88;;;2.30;;
51214;SDS011;63849;47.546;19.254;2023-03-13T16:23:50;6.47;;;2.70;;
51214;SDS011;63849;47.546;19.254;2023-03-13T16:26:18;2.88;;;1.60;;
51214;SDS011;63849;47.546;19.254;2023-03-13T16:28:45;10.13;;;6.10;;
51214;SDS011;63849;47.546;19.254;2023-03-13T16:31:16;21.45;;;14.02;;
51214;SDS011;63849;47.546;19.254;2023-03-13T16:33:45;12.00;;;7.25;;
51214;SDS011;63849;47.546;19.254;2023-03-13T16:36:15;5.28;;;2.63;;
51214;SDS011;63849;47.546;19.254;2023-03-13T16:38:43;13.73;;;8.13;;
51214;SDS011;63849;47.546;19.254;2023-03-13T16:41:14;26.65;;;17.80;;
51214;SDS011;63849;47.546;19.254;2023-03-13T16:43:41;8.95;;;5.45;;
51214;SDS011;63849;47.546;19.254;2023-03-13T16:46:29;7.50;;;3.38;;